Date,TemperatureHighF,TemperatureAvgF,TemperatureLowF,DewpointHighF,DewpointAvgF,DewpointLowF,HumidityHigh,HumidityAvg,HumidityLow,PressureMaxIn,PressureMinIn,WindSpeedMaxMPH,WindSpeedAvgMPH,GustSpeedMaxMPH,PrecipitationSumIn
2013-6-1,77.4,67.8,57.3,66.5,62.8,49.8,95,85,65,29.75,29.64,20,2,20,0.03
2013-6-2,59.6,47.6,39.2,58.2,43.9,36.1,95,87,69,30.05,29.60,19,3,19,0.01
2013-6-3,60.4,52.4,38.8,42.9,38.5,33.5,94,62,38,30.14,30.04,14,3,14,0.01
2013-6-4,62.9,50.8,34.9,48.1,38.3,28.6,95,67,34,30.24,30.14,13,1,13,0.08
2013-6-5,59.2,54.3,49.5,53.8,47.8,39.8,90,79,64,30.22,30.10,11,1,11,0.00
2013-6-6,68.9,59.2,49.1,50.6,42.6,35.7,78,56,34,30.10,29.96,16,3,16,0.00
2013-6-7,72.3,59.6,46.4,49.5,42.6,30.9,93,59,23,29.99,29.90,19,3,21,0.00
2013-6-8,69.3,57.7,44.9,55.6,46.1,36.6,95,69,31,30.07,29.92,10,1,10,0.00
2013-6-9,76.5,62.6,41.9,58.2,50.6,40.6,95,68,45,30.13,29.98,11,2,11,0.00
2013-6-10,72.0,64.4,58.6,63.1,57.2,49.3,94,78,56,29.98,29.80,12,2,12,0.00
2013-6-11,77.4,63.9,58.1,65.2,59.1,55.6,95,86,58,29.90,29.81,14,1,14,0.00
2013-6-12,79.2,65.2,55.6,64.9,54.6,46.3,95,73,36,29.94,29.74,14,2,14,0.00
2013-6-13,68.6,60.8,54.7,57.0,53.2,50.2,87,76,64,30.03,29.73,22,7,22,0.00
2013-6-14,71.1,59.1,45.7,50.3,41.8,26.4,95,59,19,30.14,30.03,13,2,13,0.00
2013-6-15,76.1,61.1,44.8,61.7,49.7,39.3,92,68,42,30.05,29.82,12,1,12,0.01
2013-6-16,78.5,64.6,56.9,65.5,58.7,53.0,95,83,51,29.86,29.73,25,2,25,0.64
2013-6-17,69.8,60.0,52.9,58.3,54.6,51.3,95,83,62,30.02,29.82,16,3,16,0.00
2013-6-18,69.8,59.0,46.2,52.2,45.3,31.8,95,66,27,30.13,30.02,16,3,16,0.00
2013-6-19,74.6,58.8,42.2,52.1,44.9,37.7,95,64,28,30.19,30.11,17,2,17,0.00
2013-6-20,83.0,67.3,47.6,58.9,50.7,44.6,95,59,32,30.17,30.10,15,1,15,0.00
2013-6-21,84.7,70.9,55.7,67.7,60.4,53.9,95,71,48,30.16,29.92,20,2,20,0.00
2013-6-22,77.4,65.8,61.3,66.0,61.4,59.6,95,86,64,30.08,29.96,16,1,16,0.00
2013-6-23,86.3,74.3,60.2,70.6,66.0,58.8,95,77,53,30.02,29.85,13,1,13,0.00
2013-6-24,84.5,77.4,69.3,70.6,68.0,65.7,90,73,59,29.97,29.84,12,2,12,0.00
2013-6-25,79.2,72.6,65.3,68.6,65.4,63.5,95,79,61,29.86,29.81,12,1,12,0.00
2013-6-26,88.0,72.5,60.5,68.5,64.2,59.1,95,78,42,29.83,29.74,12,2,12,0.00
2013-6-27,83.0,69.9,62.4,67.4,63.9,59.0,95,83,47,29.79,29.65,13,2,13,0.04
2013-6-28,72.7,68.4,62.3,65.4,62.8,60.7,95,82,75,29.65,29.60,13,3,13,0.00
2013-6-29,75.3,67.0,60.9,63.0,59.1,55.1,95,77,55,29.82,29.62,14,4,14,0.02
2013-6-30,76.5,67.7,57.3,56.5,49.5,36.7,89,55,24,30.05,29.82,18,4,18,0.00